Terminal Aerodrome Forecast
Issued by NWS Grand Forks, ND

Home | Current Version | Previous Version | Graphics & Text | Print | Product List | Glossary On
Versions: 1 2 3 4 5 6 7 8 9 10 11 12 13 14 15 16 17 18 19 20 21 22
000
FTUS43 KFGF 282300
TAFGFK
TAF
KGFK 282332Z 2900/2924 33018G23KT 4SM -RA BR OVC005
      TEMPO 2900/2902 2SM BR OVC003
     FM290400 34020G29KT P6SM OVC008
     FM291400 34018KT P6SM OVC015=

USA.gov is the U.S. government's official web portal to all federal, state and local government web resources and services.